Caribe Legend — V2ST — position and weather

sailwx.info

Track history (hours):
 
Tides and Currents Weather Stations Pressure Air Temp Water Temp Dewpoint Dewpoint Depression Visibility Wind Speed Wind Dir Waves Ship Positions

Caribe Legend

Last reported at 2018-Jul-30 18:19 UTC. Time now 2018-Aug-20 16:49 UTC.
Position N 10°22' W 075°31'.
Warning: this ship's position is 20 days out of date.

Length 100 m; draft 3.8 m.

Type: Cargo ship. MMSI: 304598000.

Date/timePositionNaut miles runAvg speedWind from/ knotsBaromVisibWave heightAir tempDewpointWater temp
2018-Jul-30 18:19N 10°22' W 075°31'0 0.0
2018-Jul-30 17:55N 10°22' W 075°31'0 0.0
2018-Jul-30 17:25N 10°22' W 075°31'0 0.0
2018-Jul-30 16:55N 10°22' W 075°31'0 0.0
2018-Jul-30 16:25N 10°22' W 075°31'0 0.0
2018-Jul-30 15:55N 10°22' W 075°31'0 0.0
2018-Jul-30 15:31N 10°22' W 075°31'0 0.0
2018-Jul-30 13:36N 10°22' W 075°31'0 0.0
2018-Jul-30 13:27N 10°22' W 075°31'0 0.0
2018-Jul-30 12:59N 10°22' W 075°31'0 0.6
2018-Jul-30 12:29N 10°21' W 075°31'2 4.3
2018-Jul-30 11:59N 10°20' W 075°33'3 7.0
2018-Jul-30 11:30N 10°19' W 075°36'1 2.3
2018-Jul-30 11:00N 10°19' W 075°37'3 5.6
2018-Jul-30 10:28N 10°20' W 075°40'4 7.3
2018-Jul-30 09:59N 10°21' W 075°43'3 7.2
2018-Jul-30 09:30N 10°22' W 075°47'  
2018-Jul-25 07:34N 25°21' W 080°01'110.5
2018-Jul-25 07:30N 25°22' W 080°01'510.3
2018-Jul-25 07:00N 25°27' W 079°60'510.5
2018-Jul-25 06:30N 25°32' W 079°60'510.7
2018-Jul-25 06:00N 25°37' W 080°00'510.6
2018-Jul-25 05:30N 25°42' W 080°00'510.7
2018-Jul-25 05:00N 25°48' W 079°60'510.7
2018-Jul-25 04:30N 25°53' W 080°00'510.5
2018-Jul-25 04:00N 25°58' W 080°00'510.7
2018-Jul-25 03:30N 26°04' W 079°60'510.6
2018-Jul-25 03:00N 26°09' W 079°60'510.3
2018-Jul-25 02:30N 26°14' W 079°60'510.4
2018-Jul-25 02:00N 26°19' W 079°60'510.4
2018-Jul-25 01:30N 26°25' W 079°60'510.6
2018-Jul-25 01:00N 26°30' W 079°60'510.2
2018-Jul-25 00:30N 26°35' W 079°60'510.8
2018-Jul-25 00:00N 26°41' W 079°60'510.3
2018-Jul-24 23:30N 26°46' W 080°01'2 0.4
2018-Jul-24 17:07N 26°46' W 080°03'0 0.0
2018-Jul-24 17:00N 26°46' W 080°03'0 0.0
2018-Jul-24 16:27N 26°46' W 080°03'0 0.0
2018-Jul-24 15:58N 26°46' W 080°03'0 0.0
2018-Jul-24 15:22N 26°46' W 080°03'0 0.0
2018-Jul-24 14:20N 26°46' W 080°03'0 0.0
2018-Jul-24 13:59N 26°46' W 080°03'0 0.0
2018-Jul-24 13:29N 26°46' W 080°03'0 0.2
2018-Jul-24 12:58N 26°46' W 080°03'510.0
2018-Jul-24 12:30N 26°45' W 079°58'28 0.7
2018-Jul-22 22:12N 26°34' W 079°29'211.7
2018-Jul-22 21:59N 26°35' W 079°31'611.7
2018-Jul-22 21:29N 26°37' W 079°37'1911.7
2018-Jul-22 19:51N 26°44' W 079°57'410.8
2018-Jul-22 19:30N 26°44' W 080°01'0 0.1
2018-Jul-22 19:00N 26°44' W 080°01'0 0.0
2018-Jul-22 18:30N 26°44' W 080°01'0 0.0
2018-Jul-22 18:00N 26°44' W 080°01'0 0.0
2018-Jul-22 17:30N 26°44' W 080°01'0 0.0
2018-Jul-22 17:00N 26°44' W 080°01'0 0.0
2018-Jul-22 16:30N 26°44' W 080°01'0 0.0
2018-Jul-22 15:54N 26°44' W 080°01'0 0.0
2018-Jul-22 15:00N 26°44' W 080°01'0 0.0
2018-Jul-22 14:30N 26°44' W 080°01'0 0.0
2018-Jul-22 14:00N 26°44' W 080°01'0 0.0
2018-Jul-22 13:30N 26°44' W 080°01'0 0.0
2018-Jul-22 13:00N 26°44' W 080°01'0 0.1
2018-Jul-22 12:30N 26°44' W 080°01'0 0.0
2018-Jul-22 12:00N 26°44' W 080°01'3 0.2
2018-Jul-21 22:31N 26°46' W 080°03'0 0.0
2018-Jul-21 22:16N 26°46' W 080°03'0 0.1
2018-Jul-21 13:30N 26°46' W 080°03'510.3
2018-Jul-21 13:00N 26°45' W 079°57'  
Track history (hours):
 
Tides and Currents Weather Stations Pressure Air Temp Water Temp Dewpoint Dewpoint Depression Visibility Wind Speed Wind Dir Waves Ship Positions

Caribe Legend

Last reported at 2018-Jul-30 18:19 UTC. Time now 2018-Aug-20 16:49 UTC.
Position N 10°22' W 075°31'.
Warning: this ship's position is 20 days out of date.

Length 100 m; draft 3.8 m.

Type: Cargo ship. MMSI: 304598000.

Date/timePositionNaut miles runAvg speedWind from/ knotsBaromVisibWave heightAir tempDewpointWater temp
2018-Jul-30 18:19N 10°22' W 075°31'0 0.0
2018-Jul-30 17:55N 10°22' W 075°31'0 0.0
2018-Jul-30 17:25N 10°22' W 075°31'0 0.0
2018-Jul-30 16:55N 10°22' W 075°31'0 0.0
2018-Jul-30 16:25N 10°22' W 075°31'0 0.0
2018-Jul-30 15:55N 10°22' W 075°31'0 0.0
2018-Jul-30 15:31N 10°22' W 075°31'0 0.0
2018-Jul-30 13:36N 10°22' W 075°31'0 0.0
2018-Jul-30 13:27N 10°22' W 075°31'0 0.0
2018-Jul-30 12:59N 10°22' W 075°31'0 0.6
2018-Jul-30 12:29N 10°21' W 075°31'2 4.3
2018-Jul-30 11:59N 10°20' W 075°33'3 7.0
2018-Jul-30 11:30N 10°19' W 075°36'1 2.3
2018-Jul-30 11:00N 10°19' W 075°37'3 5.6
2018-Jul-30 10:28N 10°20' W 075°40'4 7.3
2018-Jul-30 09:59N 10°21' W 075°43'3 7.2
2018-Jul-30 09:30N 10°22' W 075°47'  
2018-Jul-25 07:34N 25°21' W 080°01'110.5
2018-Jul-25 07:30N 25°22' W 080°01'510.3
2018-Jul-25 07:00N 25°27' W 079°60'510.5
2018-Jul-25 06:30N 25°32' W 079°60'510.7
2018-Jul-25 06:00N 25°37' W 080°00'510.6
2018-Jul-25 05:30N 25°42' W 080°00'510.7
2018-Jul-25 05:00N 25°48' W 079°60'510.7
2018-Jul-25 04:30N 25°53' W 080°00'510.5
2018-Jul-25 04:00N 25°58' W 080°00'510.7
2018-Jul-25 03:30N 26°04' W 079°60'510.6
2018-Jul-25 03:00N 26°09' W 079°60'510.3
2018-Jul-25 02:30N 26°14' W 079°60'510.4
2018-Jul-25 02:00N 26°19' W 079°60'510.4
2018-Jul-25 01:30N 26°25' W 079°60'510.6
2018-Jul-25 01:00N 26°30' W 079°60'510.2
2018-Jul-25 00:30N 26°35' W 079°60'510.8
2018-Jul-25 00:00N 26°41' W 079°60'510.3
2018-Jul-24 23:30N 26°46' W 080°01'2 0.4
2018-Jul-24 17:07N 26°46' W 080°03'0 0.0
2018-Jul-24 17:00N 26°46' W 080°03'0 0.0
2018-Jul-24 16:27N 26°46' W 080°03'0 0.0
2018-Jul-24 15:58N 26°46' W 080°03'0 0.0
2018-Jul-24 15:22N 26°46' W 080°03'0 0.0
2018-Jul-24 14:20N 26°46' W 080°03'0 0.0
2018-Jul-24 13:59N 26°46' W 080°03'0 0.0
2018-Jul-24 13:29N 26°46' W 080°03'0 0.2
2018-Jul-24 12:58N 26°46' W 080°03'510.0
2018-Jul-24 12:30N 26°45' W 079°58'28 0.7
2018-Jul-22 22:12N 26°34' W 079°29'211.7
2018-Jul-22 21:59N 26°35' W 079°31'611.7
2018-Jul-22 21:29N 26°37' W 079°37'1911.7
2018-Jul-22 19:51N 26°44' W 079°57'410.8
2018-Jul-22 19:30N 26°44' W 080°01'0 0.1
2018-Jul-22 19:00N 26°44' W 080°01'0 0.0
2018-Jul-22 18:30N 26°44' W 080°01'0 0.0
2018-Jul-22 18:00N 26°44' W 080°01'0 0.0
2018-Jul-22 17:30N 26°44' W 080°01'0 0.0
2018-Jul-22 17:00N 26°44' W 080°01'0 0.0
2018-Jul-22 16:30N 26°44' W 080°01'0 0.0
2018-Jul-22 15:54N 26°44' W 080°01'0 0.0
2018-Jul-22 15:00N 26°44' W 080°01'0 0.0
2018-Jul-22 14:30N 26°44' W 080°01'0 0.0
2018-Jul-22 14:00N 26°44' W 080°01'0 0.0
2018-Jul-22 13:30N 26°44' W 080°01'0 0.0
2018-Jul-22 13:00N 26°44' W 080°01'0 0.1
2018-Jul-22 12:30N 26°44' W 080°01'0 0.0
2018-Jul-22 12:00N 26°44' W 080°01'3 0.2
2018-Jul-21 22:31N 26°46' W 080°03'0 0.0
2018-Jul-21 22:16N 26°46' W 080°03'0 0.1
2018-Jul-21 13:30N 26°46' W 080°03'510.3
2018-Jul-21 13:00N 26°45' W 079°57'  

Dump ship's entire track history